East Freetown, MA (02717)

2:57 PM EDT on August 29, 2015 (GMT -0400)
Freetown Lakeville | | Change Station
CLOSE
Current Station
Personal Weather Station
Location: Lakeville, MA
Elevation: 153 ft
Nearby Weather Stations

Elev 153 ft 41.80 °N, 70.97 °W | Updated 11 minutes ago

Partly Cloudy
Partly Cloudy
78.1 °F
Feels Like 80 °F
N
1.7
Wind Variable Wind from East

Today
High -- | Low -- °F
--% Chance of Precip.
Yesterday
High -- | Low -- °F
Precip. -- in
6:06 AM 7:22 PM
Full, 100% visible
Pressure 30.13 in
Visibility 10.0 miles
Clouds Few 4100 ft
Heat Index 80 °F
Dew Point 61 °F
Humidity 55%
Rainfall 0.00 in
Snow Depth Not available.
UV 7 out of 12
Pollen 9.60 out of 12
Air Quality Not available.
Flu Activity Not available.
METAR KEWB 291853Z 24009G16KT 10SM FEW041 26/16 A3013 RMK AO2 SLP203 T02560156
Pressure 30.13 in
Visibility 10.0 miles
Clouds Few 4100 ft
Heat Index 80 °F
Dew Point 61 °F
Humidity 55%
Rainfall 0.00 in
Snow Depth Not available.
UV 7 out of 12
Pollen 9.60 out of 12
Air Quality Not available.
Flu Activity Not available.
METAR KEWB 291853Z 24009G16KT 10SM FEW041 26/16 A3013 RMK AO2 SLP203 T02560156

10-Day Weather Forecast

×

Almanac

Astronomy

Aug. 29, 2015 Rise Set
Actual Time
Civil Twilight
Nautical Twilight
Astronomical Twilight
Moon
Length of Visible Light
Length of Day
Tomorrow will be .
, % of the Moon is Illuminated

Today's Extremes

State Highs State Lows

Community

WunderPhotos

Upload Photos

1,850,764 photos uploaded!

WunderBlogs® & News

Nearby

Air Quality

  Air Quality AQ Index Pollutant
Not available.

Snow Depth

Station Depth Elevation

Earthquake Activity

City Distance Mag. Time & Date
Minimum magnitude displayed is 2.5.

Coastal Water Temperatures

Place Temperature

Stations

Nearby Weather Stations

Station Location Temp. Windchill Dew Point Humidity Wind Precip. Elev Updated Type